sensor_id;sensor_type;location;lat;lon;timestamp;P1;durP1;ratioP1;P2;durP2;ratioP2
39694;SDS011;25367;-35.352;149.036;2023-04-02T00:00:13;4.38;;;0.40;;
39694;SDS011;25367;-35.352;149.036;2023-04-02T00:02:48;1.08;;;0.50;;
39694;SDS011;25367;-35.352;149.036;2023-04-02T00:05:30;1.45;;;0.35;;
39694;SDS011;25367;-35.352;149.036;2023-04-02T00:08:17;1.67;;;0.30;;
39694;SDS011;25367;-35.352;149.036;2023-04-02T00:10:51;1.45;;;0.32;;
39694;SDS011;25367;-35.352;149.036;2023-04-02T00:13:29;2.58;;;0.40;;
39694;SDS011;25367;-35.352;149.036;2023-04-02T00:16:05;1.27;;;0.40;;
39694;SDS011;25367;-35.352;149.036;2023-04-02T00:18:39;3.60;;;0.30;;
39694;SDS011;25367;-35.352;149.036;2023-04-02T00:21:12;1.65;;;0.60;;
39694;SDS011;25367;-35.352;149.036;2023-04-02T00:23:47;0.60;;;0.22;;
39694;SDS011;25367;-35.352;149.036;2023-04-02T00:26:20;2.58;;;0.40;;
39694;SDS011;25367;-35.352;149.036;2023-04-02T00:28:51;1.67;;;0.30;;
39694;SDS011;25367;-35.352;149.036;2023-04-02T00:31:23;1.75;;;0.30;;
39694;SDS011;25367;-35.352;149.036;2023-04-02T00:33:53;2.13;;;0.30;;
39694;SDS011;25367;-35.352;149.036;2023-04-02T00:36:23;1.88;;;0.20;;
39694;SDS011;25367;-35.352;149.036;2023-04-02T00:38:55;3.35;;;0.20;;
39694;SDS011;25367;-35.352;149.036;2023-04-02T00:41:27;3.90;;;0.32;;
39694;SDS011;25367;-35.352;149.036;2023-04-02T00:43:58;3.45;;;0.20;;
39694;SDS011;25367;-35.352;149.036;2023-04-02T00:46:32;2.55;;;0.65;;
39694;SDS011;25367;-35.352;149.036;2023-04-02T00:49:07;3.88;;;0.40;;
39694;SDS011;25367;-35.352;149.036;2023-04-02T00:51:43;6.13;;;0.57;;
39694;SDS011;25367;-35.352;149.036;2023-04-02T00:54:17;3.95;;;0.50;;
39694;SDS011;25367;-35.352;149.036;2023-04-02T00:56:50;3.97;;;0.55;;
39694;SDS011;25367;-35.352;149.036;2023-04-02T00:59:24;3.17;;;0.70;;
39694;SDS011;25367;-35.352;149.036;2023-04-02T01:02:00;2.67;;;0.35;;
39694;SDS011;25367;-35.352;149.036;2023-04-02T01:04:51;7.28;;;0.55;;
39694;SDS011;25367;-35.352;149.036;2023-04-02T01:07:28;0.93;;;0.20;;
39694;SDS011;25367;-35.352;149.036;2023-04-02T01:12:56;0.65;;;0.30;;
39694;SDS011;25367;-35.352;149.036;2023-04-02T01:15:35;3.25;;;0.47;;
39694;SDS011;25367;-35.352;149.036;2023-04-02T01:18:15;2.70;;;0.47;;
39694;SDS011;25367;-35.352;149.036;2023-04-02T01:21:02;2.08;;;0.65;;
39694;SDS011;25367;-35.352;149.036;2023-04-02T01:23:48;4.22;;;1.02;;
39694;SDS011;25367;-35.352;149.036;2023-04-02T01:26:24;7.65;;;1.10;;
39694;SDS011;25367;-35.352;149.036;2023-04-02T01:29:15;6.35;;;0.75;;
39694;SDS011;25367;-35.352;149.036;2023-04-02T01:31:46;7.40;;;0.65;;
39694;SDS011;25367;-35.352;149.036;2023-04-02T01:34:18;3.40;;;0.90;;
39694;SDS011;25367;-35.352;149.036;2023-04-02T01:36:55;6.28;;;0.80;;
39694;SDS011;25367;-35.352;149.036;2023-04-02T01:39:38;4.47;;;0.70;;
39694;SDS011;25367;-35.352;149.036;2023-04-02T01:42:17;77.85;;;6.78;;
39694;SDS011;25367;-35.352;149.036;2023-04-02T01:44:58;3.85;;;0.90;;
39694;SDS011;25367;-35.352;149.036;2023-04-02T01:47:28;14.35;;;0.90;;
39694;SDS011;25367;-35.352;149.036;2023-04-02T01:49:59;8.05;;;1.00;;
39694;SDS011;25367;-35.352;149.036;2023-04-02T01:52:35;4.05;;;0.60;;
39694;SDS011;25367;-35.352;149.036;2023-04-02T01:55:08;3.65;;;0.80;;
39694;SDS011;25367;-35.352;149.036;2023-04-02T01:57:39;7.18;;;0.70;;
39694;SDS011;25367;-35.352;149.036;2023-04-02T02:00:16;8.18;;;1.08;;
39694;SDS011;25367;-35.352;149.036;2023-04-02T02:02:50;6.95;;;1.17;;
39694;SDS011;25367;-35.352;149.036;2023-04-02T02:05:20;5.75;;;0.93;;
39694;SDS011;25367;-35.352;149.036;2023-04-02T02:07:52;8.90;;;1.20;;
39694;SDS011;25367;-35.352;149.036;2023-04-02T02:10:25;4.13;;;1.13;;
39694;SDS011;25367;-35.352;149.036;2023-04-02T02:12:56;6.50;;;1.15;;
39694;SDS011;25367;-35.352;149.036;2023-04-02T02:15:30;5.63;;;0.88;;
39694;SDS011;25367;-35.352;149.036;2023-04-02T02:18:01;7.53;;;1.35;;
39694;SDS011;25367;-35.352;149.036;2023-04-02T02:20:32;10.20;;;1.40;;
39694;SDS011;25367;-35.352;149.036;2023-04-02T02:23:02;4.78;;;1.40;;
39694;SDS011;25367;-35.352;149.036;2023-04-02T02:25:32;4.75;;;1.35;;
39694;SDS011;25367;-35.352;149.036;2023-04-02T02:28:03;3.88;;;1.15;;
39694;SDS011;25367;-35.352;149.036;2023-04-02T02:30:40;3.88;;;1.10;;
39694;SDS011;25367;-35.352;149.036;2023-04-02T02:33:15;2.95;;;1.10;;
39694;SDS011;25367;-35.352;149.036;2023-04-02T02:35:48;4.07;;;0.90;;
39694;SDS011;25367;-35.352;149.036;2023-04-02T02:38:25;9.35;;;1.30;;
39694;SDS011;25367;-35.352;149.036;2023-04-02T02:41:19;3.85;;;0.90;;
39694;SDS011;25367;-35.352;149.036;2023-04-02T02:43:59;5.78;;;1.05;;
39694;SDS011;25367;-35.352;149.036;2023-04-02T02:46:36;7.60;;;1.52;;
39694;SDS011;25367;-35.352;149.036;2023-04-02T02:49:11;5.75;;;1.35;;
39694;SDS011;25367;-35.352;149.036;2023-04-02T02:51:45;6.15;;;1.00;;
39694;SDS011;25367;-35.352;149.036;2023-04-02T02:54:26;6.40;;;1.13;;
39694;SDS011;25367;-35.352;149.036;2023-04-02T02:56:56;6.07;;;1.00;;
39694;SDS011;25367;-35.352;149.036;2023-04-02T02:59:29;8.35;;;1.23;;
39694;SDS011;25367;-35.352;149.036;2023-04-02T03:02:03;5.18;;;0.95;;
39694;SDS011;25367;-35.352;149.036;2023-04-02T03:04:33;7.95;;;1.10;;
39694;SDS011;25367;-35.352;149.036;2023-04-02T03:07:07;7.63;;;1.35;;
39694;SDS011;25367;-35.352;149.036;2023-04-02T03:09:39;3.25;;;0.85;;
39694;SDS011;25367;-35.352;149.036;2023-04-02T03:12:23;5.65;;;0.98;;
39694;SDS011;25367;-35.352;149.036;2023-04-02T03:15:14;9.15;;;1.27;;
39694;SDS011;25367;-35.352;149.036;2023-04-02T03:17:53;4.13;;;0.95;;
39694;SDS011;25367;-35.352;149.036;2023-04-02T03:20:29;5.50;;;1.00;;
39694;SDS011;25367;-35.352;149.036;2023-04-02T03:23:03;5.30;;;0.90;;
39694;SDS011;25367;-35.352;149.036;2023-04-02T03:25:41;1.13;;;0.45;;
39694;SDS011;25367;-35.352;149.036;2023-04-02T03:28:15;2.17;;;0.77;;
39694;SDS011;25367;-35.352;149.036;2023-04-02T03:30:51;2.05;;;0.60;;
39694;SDS011;25367;-35.352;149.036;2023-04-02T03:33:26;2.92;;;0.70;;
39694;SDS011;25367;-35.352;149.036;2023-04-02T03:36:01;1.20;;;0.70;;
39694;SDS011;25367;-35.352;149.036;2023-04-02T03:38:40;3.63;;;0.70;;
39694;SDS011;25367;-35.352;149.036;2023-04-02T03:41:14;3.53;;;0.70;;
39694;SDS011;25367;-35.352;149.036;2023-04-02T03:46:20;2.58;;;0.70;;
39694;SDS011;25367;-35.352;149.036;2023-04-02T03:48:59;4.57;;;1.40;;
39694;SDS011;25367;-35.352;149.036;2023-04-02T03:51:32;4.65;;;0.75;;
39694;SDS011;25367;-35.352;149.036;2023-04-02T03:54:06;2.70;;;0.88;;
39694;SDS011;25367;-35.352;149.036;2023-04-02T03:56:40;1.27;;;0.40;;
39694;SDS011;25367;-35.352;149.036;2023-04-02T03:59:23;3.85;;;0.85;;
39694;SDS011;25367;-35.352;149.036;2023-04-02T04:02:07;1.85;;;0.65;;
39694;SDS011;25367;-35.352;149.036;2023-04-02T04:04:49;1.77;;;0.50;;
39694;SDS011;25367;-35.352;149.036;2023-04-02T04:07:21;1.33;;;0.47;;
39694;SDS011;25367;-35.352;149.036;2023-04-02T04:09:57;1.65;;;0.50;;
39694;SDS011;25367;-35.352;149.036;2023-04-02T04:12:29;5.57;;;0.68;;
39694;SDS011;25367;-35.352;149.036;2023-04-02T04:15:04;2.13;;;0.70;;
39694;SDS011;25367;-35.352;149.036;2023-04-02T04:17:41;2.42;;;0.70;;
39694;SDS011;25367;-35.352;149.036;2023-04-02T04:20:27;5.55;;;1.00;;
39694;SDS011;25367;-35.352;149.036;2023-04-02T04:23:08;4.25;;;0.85;;
39694;SDS011;25367;-35.352;149.036;2023-04-02T04:25:45;2.90;;;0.55;;
39694;SDS011;25367;-35.352;149.036;2023-04-02T04:28:24;1.65;;;0.63;;
39694;SDS011;25367;-35.352;149.036;2023-04-02T04:31:00;2.65;;;0.82;;
39694;SDS011;25367;-35.352;149.036;2023-04-02T04:33:38;3.50;;;0.73;;
39694;SDS011;25367;-35.352;149.036;2023-04-02T04:36:20;2.60;;;0.77;;
39694;SDS011;25367;-35.352;149.036;2023-04-02T04:38:52;0.40;;;0.20;;
39694;SDS011;25367;-35.352;149.036;2023-04-02T04:41:25;2.22;;;0.60;;
39694;SDS011;25367;-35.352;149.036;2023-04-02T04:44:01;1.77;;;0.43;;
39694;SDS011;25367;-35.352;149.036;2023-04-02T04:46:35;4.53;;;0.75;;
39694;SDS011;25367;-35.352;149.036;2023-04-02T04:49:10;2.65;;;0.88;;
39694;SDS011;25367;-35.352;149.036;2023-04-02T04:51:48;1.88;;;0.50;;
39694;SDS011;25367;-35.352;149.036;2023-04-02T04:54:23;2.58;;;1.00;;
39694;SDS011;25367;-35.352;149.036;2023-04-02T04:56:56;2.45;;;0.57;;
39694;SDS011;25367;-35.352;149.036;2023-04-02T04:59:30;0.30;;;0.20;;
39694;SDS011;25367;-35.352;149.036;2023-04-02T05:02:04;1.25;;;0.35;;
39694;SDS011;25367;-35.352;149.036;2023-04-02T05:04:38;0.52;;;0.30;;
39694;SDS011;25367;-35.352;149.036;2023-04-02T05:07:17;2.42;;;0.43;;
39694;SDS011;25367;-35.352;149.036;2023-04-02T05:09:51;3.22;;;0.73;;
39694;SDS011;25367;-35.352;149.036;2023-04-02T05:12:28;2.67;;;0.70;;
39694;SDS011;25367;-35.352;149.036;2023-04-02T05:15:02;3.50;;;0.40;;
39694;SDS011;25367;-35.352;149.036;2023-04-02T05:17:41;1.67;;;0.75;;
39694;SDS011;25367;-35.352;149.036;2023-04-02T05:20:20;1.33;;;0.60;;
39694;SDS011;25367;-35.352;149.036;2023-04-02T05:22:59;2.63;;;0.70;;
39694;SDS011;25367;-35.352;149.036;2023-04-02T05:25:33;1.58;;;0.60;;
39694;SDS011;25367;-35.352;149.036;2023-04-02T05:28:05;2.80;;;0.88;;
39694;SDS011;25367;-35.352;149.036;2023-04-02T05:30:45;0.75;;;0.40;;
39694;SDS011;25367;-35.352;149.036;2023-04-02T05:33:21;1.92;;;0.40;;
39694;SDS011;25367;-35.352;149.036;2023-04-02T05:35:56;1.50;;;0.38;;
39694;SDS011;25367;-35.352;149.036;2023-04-02T06:16:44;5.80;;;0.93;;
39694;SDS011;25367;-35.352;149.036;2023-04-02T06:21:45;2.22;;;0.80;;
39694;SDS011;25367;-35.352;149.036;2023-04-02T06:24:19;2.17;;;0.60;;
39694;SDS011;25367;-35.352;149.036;2023-04-02T06:26:54;3.92;;;0.93;;
39694;SDS011;25367;-35.352;149.036;2023-04-02T06:29:29;2.15;;;1.35;;
39694;SDS011;25367;-35.352;149.036;2023-04-02T06:32:05;3.65;;;2.20;;
39694;SDS011;25367;-35.352;149.036;2023-04-02T06:34:39;8.48;;;2.80;;
39694;SDS011;25367;-35.352;149.036;2023-04-02T06:37:14;7.90;;;3.38;;
39694;SDS011;25367;-35.352;149.036;2023-04-02T06:39:52;3.10;;;1.58;;
39694;SDS011;25367;-35.352;149.036;2023-04-02T06:42:23;5.40;;;2.20;;
39694;SDS011;25367;-35.352;149.036;2023-04-02T06:45:28;3.38;;;2.00;;
39694;SDS011;25367;-35.352;149.036;2023-04-02T06:48:16;4.47;;;2.40;;
39694;SDS011;25367;-35.352;149.036;2023-04-02T06:50:53;8.00;;;5.03;;
39694;SDS011;25367;-35.352;149.036;2023-04-02T06:53:26;7.35;;;4.68;;
39694;SDS011;25367;-35.352;149.036;2023-04-02T06:56:02;4.30;;;2.50;;
39694;SDS011;25367;-35.352;149.036;2023-04-02T06:58:37;4.32;;;1.77;;
39694;SDS011;25367;-35.352;149.036;2023-04-02T07:01:07;13.15;;;7.75;;
39694;SDS011;25367;-35.352;149.036;2023-04-02T07:03:46;13.10;;;10.63;;
39694;SDS011;25367;-35.352;149.036;2023-04-02T07:06:24;8.85;;;6.40;;
39694;SDS011;25367;-35.352;149.036;2023-04-02T07:08:58;11.48;;;9.57;;
39694;SDS011;25367;-35.352;149.036;2023-04-02T07:11:28;14.30;;;8.07;;
39694;SDS011;25367;-35.352;149.036;2023-04-02T07:16:29;9.80;;;6.38;;
39694;SDS011;25367;-35.352;149.036;2023-04-02T07:19:04;9.35;;;5.93;;
39694;SDS011;25367;-35.352;149.036;2023-04-02T07:21:36;9.10;;;5.75;;
39694;SDS011;25367;-35.352;149.036;2023-04-02T07:24:06;6.82;;;4.93;;
39694;SDS011;25367;-35.352;149.036;2023-04-02T07:26:36;23.58;;;4.88;;
39694;SDS011;25367;-35.352;149.036;2023-04-02T07:29:06;6.78;;;4.50;;
39694;SDS011;25367;-35.352;149.036;2023-04-02T07:31:40;16.90;;;3.97;;
39694;SDS011;25367;-35.352;149.036;2023-04-02T07:34:13;6.13;;;3.25;;
39694;SDS011;25367;-35.352;149.036;2023-04-02T07:36:43;7.75;;;3.95;;
39694;SDS011;25367;-35.352;149.036;2023-04-02T07:39:13;4.18;;;2.92;;
39694;SDS011;25367;-35.352;149.036;2023-04-02T07:44:29;5.75;;;3.13;;
39694;SDS011;25367;-35.352;149.036;2023-04-02T07:46:58;7.15;;;3.30;;
39694;SDS011;25367;-35.352;149.036;2023-04-02T07:49:31;13.35;;;3.10;;
39694;SDS011;25367;-35.352;149.036;2023-04-02T07:52:00;6.90;;;2.90;;
39694;SDS011;25367;-35.352;149.036;2023-04-02T07:54:30;6.50;;;2.72;;
39694;SDS011;25367;-35.352;149.036;2023-04-02T07:56:59;6.22;;;2.90;;
39694;SDS011;25367;-35.352;149.036;2023-04-02T07:59:28;5.43;;;2.47;;
39694;SDS011;25367;-35.352;149.036;2023-04-02T08:01:58;4.28;;;2.53;;
39694;SDS011;25367;-35.352;149.036;2023-04-02T08:04:31;8.40;;;2.85;;
39694;SDS011;25367;-35.352;149.036;2023-04-02T08:07:00;11.80;;;3.50;;
39694;SDS011;25367;-35.352;149.036;2023-04-02T08:09:30;11.50;;;3.55;;
39694;SDS011;25367;-35.352;149.036;2023-04-02T08:11:59;7.32;;;3.45;;
39694;SDS011;25367;-35.352;149.036;2023-04-02T08:14:28;7.18;;;3.25;;
39694;SDS011;25367;-35.352;149.036;2023-04-02T08:16:58;8.80;;;3.95;;
39694;SDS011;25367;-35.352;149.036;2023-04-02T08:19:31;10.27;;;4.70;;
39694;SDS011;25367;-35.352;149.036;2023-04-02T08:22:00;7.38;;;3.75;;
39694;SDS011;25367;-35.352;149.036;2023-04-02T08:24:30;10.38;;;3.40;;
39694;SDS011;25367;-35.352;149.036;2023-04-02T08:26:59;10.73;;;3.40;;
39694;SDS011;25367;-35.352;149.036;2023-04-02T08:29:29;38.58;;;5.05;;
39694;SDS011;25367;-35.352;149.036;2023-04-02T08:31:58;14.00;;;3.90;;
39694;SDS011;25367;-35.352;149.036;2023-04-02T08:34:31;9.82;;;3.47;;
39694;SDS011;25367;-35.352;149.036;2023-04-02T08:37:01;15.13;;;3.55;;
39694;SDS011;25367;-35.352;149.036;2023-04-02T08:39:30;8.70;;;3.25;;
39694;SDS011;25367;-35.352;149.036;2023-04-02T08:42:02;13.30;;;3.63;;
39694;SDS011;25367;-35.352;149.036;2023-04-02T08:44:40;10.35;;;3.50;;
39694;SDS011;25367;-35.352;149.036;2023-04-02T08:47:15;8.52;;;3.75;;
39694;SDS011;25367;-35.352;149.036;2023-04-02T08:49:50;9.23;;;2.93;;
39694;SDS011;25367;-35.352;149.036;2023-04-02T08:52:22;8.90;;;3.10;;
39694;SDS011;25367;-35.352;149.036;2023-04-02T08:54:52;8.55;;;2.80;;
39694;SDS011;25367;-35.352;149.036;2023-04-02T08:57:24;7.05;;;2.92;;
39694;SDS011;25367;-35.352;149.036;2023-04-02T09:00:04;8.00;;;2.97;;
39694;SDS011;25367;-35.352;149.036;2023-04-02T09:02:51;7.88;;;2.42;;
39694;SDS011;25367;-35.352;149.036;2023-04-02T09:05:26;6.05;;;2.03;;
39694;SDS011;25367;-35.352;149.036;2023-04-02T09:07:59;15.48;;;3.78;;
39694;SDS011;25367;-35.352;149.036;2023-04-02T09:10:33;6.82;;;2.80;;
39694;SDS011;25367;-35.352;149.036;2023-04-02T09:13:06;8.43;;;3.25;;
39694;SDS011;25367;-35.352;149.036;2023-04-02T09:15:42;10.38;;;3.17;;
39694;SDS011;25367;-35.352;149.036;2023-04-02T09:18:13;8.35;;;2.50;;
39694;SDS011;25367;-35.352;149.036;2023-04-02T09:20:46;9.68;;;2.42;;
39694;SDS011;25367;-35.352;149.036;2023-04-02T09:23:16;7.55;;;2.38;;
39694;SDS011;25367;-35.352;149.036;2023-04-02T09:25:47;7.30;;;2.60;;
39694;SDS011;25367;-35.352;149.036;2023-04-02T09:28:18;7.15;;;2.83;;
39694;SDS011;25367;-35.352;149.036;2023-04-02T09:30:54;5.53;;;2.28;;
39694;SDS011;25367;-35.352;149.036;2023-04-02T09:33:42;9.18;;;2.85;;
39694;SDS011;25367;-35.352;149.036;2023-04-02T09:36:25;6.40;;;2.75;;
39694;SDS011;25367;-35.352;149.036;2023-04-02T09:39:01;6.57;;;2.42;;
39694;SDS011;25367;-35.352;149.036;2023-04-02T09:41:32;9.25;;;2.42;;
39694;SDS011;25367;-35.352;149.036;2023-04-02T09:46:55;7.80;;;2.47;;
39694;SDS011;25367;-35.352;149.036;2023-04-02T09:49:26;5.25;;;2.10;;
39694;SDS011;25367;-35.352;149.036;2023-04-02T09:52:16;5.13;;;2.50;;
39694;SDS011;25367;-35.352;149.036;2023-04-02T09:55:04;7.40;;;2.10;;
39694;SDS011;25367;-35.352;149.036;2023-04-02T09:57:48;4.65;;;1.90;;
39694;SDS011;25367;-35.352;149.036;2023-04-02T10:00:19;5.90;;;2.22;;
39694;SDS011;25367;-35.352;149.036;2023-04-02T10:02:59;5.53;;;1.98;;
39694;SDS011;25367;-35.352;149.036;2023-04-02T10:05:34;4.88;;;2.05;;
39694;SDS011;25367;-35.352;149.036;2023-04-02T10:08:14;8.30;;;2.53;;
39694;SDS011;25367;-35.352;149.036;2023-04-02T10:10:45;6.00;;;2.05;;
39694;SDS011;25367;-35.352;149.036;2023-04-02T10:13:18;5.63;;;2.13;;
39694;SDS011;25367;-35.352;149.036;2023-04-02T10:15:52;9.90;;;2.42;;
39694;SDS011;25367;-35.352;149.036;2023-04-02T10:18:28;8.45;;;2.10;;
39694;SDS011;25367;-35.352;149.036;2023-04-02T10:21:07;5.65;;;1.77;;
39694;SDS011;25367;-35.352;149.036;2023-04-02T10:23:41;4.93;;;2.20;;
39694;SDS011;25367;-35.352;149.036;2023-04-02T10:29:11;4.28;;;1.75;;
39694;SDS011;25367;-35.352;149.036;2023-04-02T10:31:51;6.60;;;2.45;;
39694;SDS011;25367;-35.352;149.036;2023-04-02T10:34:27;3.97;;;1.90;;
39694;SDS011;25367;-35.352;149.036;2023-04-02T10:37:09;3.40;;;1.67;;
39694;SDS011;25367;-35.352;149.036;2023-04-02T10:40:00;3.88;;;1.75;;
39694;SDS011;25367;-35.352;149.036;2023-04-02T10:42:37;5.78;;;1.70;;
39694;SDS011;25367;-35.352;149.036;2023-04-02T10:45:16;4.57;;;2.05;;
39694;SDS011;25367;-35.352;149.036;2023-04-02T10:47:57;7.55;;;1.70;;
39694;SDS011;25367;-35.352;149.036;2023-04-02T10:50:34;4.35;;;1.45;;
39694;SDS011;25367;-35.352;149.036;2023-04-02T10:53:10;10.57;;;2.05;;
39694;SDS011;25367;-35.352;149.036;2023-04-02T10:55:46;4.65;;;1.75;;
39694;SDS011;25367;-35.352;149.036;2023-04-02T10:58:21;5.15;;;1.85;;
39694;SDS011;25367;-35.352;149.036;2023-04-02T11:03:26;5.55;;;1.92;;
39694;SDS011;25367;-35.352;149.036;2023-04-02T11:05:59;6.10;;;1.75;;
39694;SDS011;25367;-35.352;149.036;2023-04-02T11:08:37;3.67;;;1.60;;
39694;SDS011;25367;-35.352;149.036;2023-04-02T11:11:12;4.18;;;1.83;;
39694;SDS011;25367;-35.352;149.036;2023-04-02T11:13:49;5.90;;;1.63;;
39694;SDS011;25367;-35.352;149.036;2023-04-02T11:16:23;5.03;;;1.92;;
39694;SDS011;25367;-35.352;149.036;2023-04-02T11:21:53;3.70;;;1.55;;
39694;SDS011;25367;-35.352;149.036;2023-04-02T11:24:25;6.30;;;1.50;;
39694;SDS011;25367;-35.352;149.036;2023-04-02T11:27:19;5.18;;;1.85;;
39694;SDS011;25367;-35.352;149.036;2023-04-02T11:29:56;2.63;;;1.40;;
39694;SDS011;25367;-35.352;149.036;2023-04-02T11:32:42;2.28;;;1.30;;
39694;SDS011;25367;-35.352;149.036;2023-04-02T11:41:10;5.47;;;1.80;;
39694;SDS011;25367;-35.352;149.036;2023-04-02T11:44:00;3.30;;;1.38;;
39694;SDS011;25367;-35.352;149.036;2023-04-02T11:46:38;2.22;;;1.42;;
39694;SDS011;25367;-35.352;149.036;2023-04-02T11:52:18;3.92;;;1.55;;
39694;SDS011;25367;-35.352;149.036;2023-04-02T11:54:59;3.28;;;1.40;;
39694;SDS011;25367;-35.352;149.036;2023-04-02T11:57:44;3.47;;;1.47;;
39694;SDS011;25367;-35.352;149.036;2023-04-02T12:00:28;4.57;;;1.60;;
39694;SDS011;25367;-35.352;149.036;2023-04-02T12:03:19;3.47;;;1.30;;
39694;SDS011;25367;-35.352;149.036;2023-04-02T12:06:00;5.97;;;1.48;;
39694;SDS011;25367;-35.352;149.036;2023-04-02T12:08:36;4.22;;;1.42;;
39694;SDS011;25367;-35.352;149.036;2023-04-02T12:11:15;4.50;;;1.38;;
39694;SDS011;25367;-35.352;149.036;2023-04-02T12:13:52;2.45;;;0.98;;
39694;SDS011;25367;-35.352;149.036;2023-04-02T12:16:23;3.78;;;1.50;;
39694;SDS011;25367;-35.352;149.036;2023-04-02T12:18:53;1.45;;;0.82;;
39694;SDS011;25367;-35.352;149.036;2023-04-02T12:21:25;4.35;;;1.67;;
39694;SDS011;25367;-35.352;149.036;2023-04-02T12:23:56;3.20;;;1.20;;
39694;SDS011;25367;-35.352;149.036;2023-04-02T12:26:27;2.53;;;1.17;;
39694;SDS011;25367;-35.352;149.036;2023-04-02T12:31:54;2.90;;;1.23;;
39694;SDS011;25367;-35.352;149.036;2023-04-02T12:34:25;2.00;;;1.20;;
39694;SDS011;25367;-35.352;149.036;2023-04-02T12:36:56;3.25;;;1.30;;
39694;SDS011;25367;-35.352;149.036;2023-04-02T12:39:27;4.07;;;1.40;;
39694;SDS011;25367;-35.352;149.036;2023-04-02T12:41:57;2.70;;;1.20;;
39694;SDS011;25367;-35.352;149.036;2023-04-02T12:44:28;2.35;;;1.10;;
39694;SDS011;25367;-35.352;149.036;2023-04-02T12:47:02;2.70;;;1.33;;
39694;SDS011;25367;-35.352;149.036;2023-04-02T12:49:35;9.27;;;1.63;;
39694;SDS011;25367;-35.352;149.036;2023-04-02T12:52:06;5.32;;;1.25;;
39694;SDS011;25367;-35.352;149.036;2023-04-02T12:54:42;3.75;;;1.42;;
39694;SDS011;25367;-35.352;149.036;2023-04-02T12:57:29;2.53;;;1.10;;
39694;SDS011;25367;-35.352;149.036;2023-04-02T13:00:00;5.82;;;1.45;;
39694;SDS011;25367;-35.352;149.036;2023-04-02T13:02:57;3.00;;;1.42;;
39694;SDS011;25367;-35.352;149.036;2023-04-02T13:05:32;2.85;;;1.23;;
39694;SDS011;25367;-35.352;149.036;2023-04-02T13:08:04;5.35;;;1.20;;
39694;SDS011;25367;-35.352;149.036;2023-04-02T13:10:41;2.55;;;1.20;;
39694;SDS011;25367;-35.352;149.036;2023-04-02T13:13:13;3.05;;;1.13;;
39694;SDS011;25367;-35.352;149.036;2023-04-02T13:15:58;4.45;;;1.20;;
39694;SDS011;25367;-35.352;149.036;2023-04-02T13:18:33;3.05;;;1.02;;
39694;SDS011;25367;-35.352;149.036;2023-04-02T13:21:04;4.57;;;1.50;;
39694;SDS011;25367;-35.352;149.036;2023-04-02T13:23:49;5.70;;;1.48;;
39694;SDS011;25367;-35.352;149.036;2023-04-02T13:26:20;3.72;;;1.02;;
39694;SDS011;25367;-35.352;149.036;2023-04-02T13:28:57;3.75;;;1.42;;
39694;SDS011;25367;-35.352;149.036;2023-04-02T13:31:28;2.55;;;1.17;;
39694;SDS011;25367;-35.352;149.036;2023-04-02T13:34:01;3.25;;;1.20;;
39694;SDS011;25367;-35.352;149.036;2023-04-02T13:36:31;4.63;;;1.30;;
39694;SDS011;25367;-35.352;149.036;2023-04-02T13:39:00;5.95;;;1.17;;
39694;SDS011;25367;-35.352;149.036;2023-04-02T13:41:30;3.83;;;1.20;;
39694;SDS011;25367;-35.352;149.036;2023-04-02T13:44:01;6.53;;;1.50;;
39694;SDS011;25367;-35.352;149.036;2023-04-02T13:46:32;2.58;;;1.20;;
39694;SDS011;25367;-35.352;149.036;2023-04-02T13:49:07;4.38;;;1.27;;
39694;SDS011;25367;-35.352;149.036;2023-04-02T13:51:39;8.82;;;1.05;;
39694;SDS011;25367;-35.352;149.036;2023-04-02T13:54:14;3.50;;;1.33;;
39694;SDS011;25367;-35.352;149.036;2023-04-02T13:56:47;5.35;;;1.75;;
39694;SDS011;25367;-35.352;149.036;2023-04-02T13:59:17;2.35;;;1.30;;
39694;SDS011;25367;-35.352;149.036;2023-04-02T14:01:46;2.08;;;1.13;;
39694;SDS011;25367;-35.352;149.036;2023-04-02T14:04:24;4.05;;;1.25;;
39694;SDS011;25367;-35.352;149.036;2023-04-02T14:09:59;4.55;;;1.63;;
39694;SDS011;25367;-35.352;149.036;2023-04-02T14:12:39;5.40;;;1.75;;
39694;SDS011;25367;-35.352;149.036;2023-04-02T14:15:25;2.42;;;1.15;;
39694;SDS011;25367;-35.352;149.036;2023-04-02T14:18:09;2.67;;;1.17;;
39694;SDS011;25367;-35.352;149.036;2023-04-02T14:21:02;2.92;;;1.05;;
39694;SDS011;25367;-35.352;149.036;2023-04-02T14:23:45;2.28;;;1.10;;
39694;SDS011;25367;-35.352;149.036;2023-04-02T14:26:24;3.50;;;1.10;;
39694;SDS011;25367;-35.352;149.036;2023-04-02T14:29:01;2.85;;;1.00;;
39694;SDS011;25367;-35.352;149.036;2023-04-02T14:31:39;8.38;;;1.65;;
39694;SDS011;25367;-35.352;149.036;2023-04-02T14:34:13;5.68;;;1.60;;
39694;SDS011;25367;-35.352;149.036;2023-04-02T14:36:53;2.83;;;1.23;;
39694;SDS011;25367;-35.352;149.036;2023-04-02T14:39:33;3.13;;;0.88;;
39694;SDS011;25367;-35.352;149.036;2023-04-02T14:42:09;2.75;;;1.10;;
39694;SDS011;25367;-35.352;149.036;2023-04-02T14:44:42;3.80;;;1.40;;
39694;SDS011;25367;-35.352;149.036;2023-04-02T14:47:17;1.80;;;0.90;;
39694;SDS011;25367;-35.352;149.036;2023-04-02T14:49:52;4.20;;;1.20;;
39694;SDS011;25367;-35.352;149.036;2023-04-02T14:52:28;3.22;;;0.98;;
39694;SDS011;25367;-35.352;149.036;2023-04-02T14:55:01;2.85;;;1.20;;
39694;SDS011;25367;-35.352;149.036;2023-04-02T14:57:34;2.95;;;1.13;;
39694;SDS011;25367;-35.352;149.036;2023-04-02T15:00:05;2.17;;;0.80;;
39694;SDS011;25367;-35.352;149.036;2023-04-02T15:02:49;1.80;;;0.82;;
39694;SDS011;25367;-35.352;149.036;2023-04-02T15:05:23;1.77;;;1.02;;
39694;SDS011;25367;-35.352;149.036;2023-04-02T15:08:03;1.83;;;0.75;;
39694;SDS011;25367;-35.352;149.036;2023-04-02T15:10:40;2.67;;;1.10;;
39694;SDS011;25367;-35.352;149.036;2023-04-02T15:13:19;3.65;;;0.95;;
39694;SDS011;25367;-35.352;149.036;2023-04-02T15:15:54;1.70;;;0.88;;
39694;SDS011;25367;-35.352;149.036;2023-04-02T15:18:30;4.20;;;1.45;;
39694;SDS011;25367;-35.352;149.036;2023-04-02T15:21:01;2.88;;;0.95;;
39694;SDS011;25367;-35.352;149.036;2023-04-02T15:26:26;2.17;;;1.10;;
39694;SDS011;25367;-35.352;149.036;2023-04-02T15:29:03;1.65;;;0.77;;
39694;SDS011;25367;-35.352;149.036;2023-04-02T15:31:39;3.25;;;0.85;;
39694;SDS011;25367;-35.352;149.036;2023-04-02T15:34:17;1.90;;;0.65;;
39694;SDS011;25367;-35.352;149.036;2023-04-02T15:36:54;2.28;;;1.00;;
39694;SDS011;25367;-35.352;149.036;2023-04-02T15:42:50;1.95;;;0.80;;
39694;SDS011;25367;-35.352;149.036;2023-04-02T15:45:40;3.40;;;0.88;;
39694;SDS011;25367;-35.352;149.036;2023-04-02T15:48:35;1.55;;;0.70;;
39694;SDS011;25367;-35.352;149.036;2023-04-02T15:51:19;3.78;;;1.02;;
39694;SDS011;25367;-35.352;149.036;2023-04-02T15:54:02;2.30;;;0.98;;
39694;SDS011;25367;-35.352;149.036;2023-04-02T15:56:40;3.08;;;1.02;;
39694;SDS011;25367;-35.352;149.036;2023-04-02T16:02:31;2.33;;;0.70;;
39694;SDS011;25367;-35.352;149.036;2023-04-02T16:05:19;3.13;;;0.93;;
39694;SDS011;25367;-35.352;149.036;2023-04-02T16:08:00;4.47;;;1.00;;
39694;SDS011;25367;-35.352;149.036;2023-04-02T16:10:40;3.38;;;0.82;;
39694;SDS011;25367;-35.352;149.036;2023-04-02T16:13:14;5.85;;;1.20;;
39694;SDS011;25367;-35.352;149.036;2023-04-02T16:15:57;2.20;;;0.82;;
39694;SDS011;25367;-35.352;149.036;2023-04-02T16:18:35;4.50;;;1.20;;
39694;SDS011;25367;-35.352;149.036;2023-04-02T16:21:14;3.33;;;0.70;;
39694;SDS011;25367;-35.352;149.036;2023-04-02T16:23:48;2.70;;;0.68;;